createdAt,value
2022-10-02T00:00:48.246Z,3.15
2022-10-02T00:03:24.216Z,5.57
2022-10-02T00:06:20.115Z,4.40
2022-10-02T00:08:53.485Z,5.00
2022-10-02T00:11:38.806Z,3.95
2022-10-02T00:14:13.806Z,4.57
2022-10-02T00:16:51.392Z,5.90
2022-10-02T00:19:21.237Z,4.00
2022-10-02T00:21:50.451Z,5.35
2022-10-02T00:24:28.527Z,4.50
2022-10-02T00:27:20.823Z,5.00
2022-10-02T00:29:56.646Z,4.95
2022-10-02T00:32:55.107Z,5.47
2022-10-02T00:35:51.073Z,7.50
2022-10-02T00:38:33.799Z,8.88
2022-10-02T00:41:59.114Z,7.43
2022-10-02T00:45:03.657Z,5.65
2022-10-02T00:48:00.465Z,5.65
2022-10-02T00:51:01.730Z,4.80
2022-10-02T00:53:49.031Z,5.63
2022-10-02T00:56:43.009Z,4.03
2022-10-02T00:59:15.701Z,3.65
2022-10-02T01:02:03.304Z,5.25
2022-10-02T01:04:36.590Z,4.63
2022-10-02T01:07:12.511Z,6.07
2022-10-02T01:09:42.976Z,4.78
2022-10-02T01:12:12.863Z,4.20
2022-10-02T01:14:42.596Z,5.50
2022-10-02T01:17:44.492Z,4.78
2022-10-02T01:20:38.478Z,4.70
2022-10-02T01:23:26.230Z,3.50
2022-10-02T01:25:55.648Z,3.83
2022-10-02T01:28:24.584Z,3.37
2022-10-02T01:30:59.257Z,4.93
2022-10-02T01:33:29.166Z,2.63
2022-10-02T01:35:58.134Z,2.47
2022-10-02T01:38:28.900Z,3.80
2022-10-02T01:40:58.225Z,2.72
2022-10-02T01:43:35.467Z,4.35
2022-10-02T01:46:19.504Z,2.90
2022-10-02T01:48:54.033Z,5.70
2022-10-02T01:51:47.090Z,7.57
2022-10-02T01:54:38.067Z,5.28
2022-10-02T01:57:55.140Z,3.92
2022-10-02T02:00:27.287Z,5.80
2022-10-02T02:03:16.829Z,4.13
2022-10-02T02:05:49.166Z,5.27
2022-10-02T02:08:26.678Z,3.00
2022-10-02T02:11:18.465Z,2.50
2022-10-02T02:14:17.631Z,3.13
2022-10-02T02:16:54.199Z,4.00
2022-10-02T02:19:37.962Z,2.42
2022-10-02T02:22:16.646Z,3.40
2022-10-02T02:25:01.599Z,2.92
2022-10-02T02:27:41.072Z,3.30
2022-10-02T02:30:14.143Z,4.17
2022-10-02T02:33:21.778Z,3.00
2022-10-02T02:35:56.884Z,3.70
2022-10-02T02:38:38.645Z,3.13
2022-10-02T02:41:14.147Z,3.85
2022-10-02T02:43:48.654Z,2.50
2022-10-02T02:46:35.092Z,2.88
2022-10-02T02:49:13.640Z,3.78
2022-10-02T02:51:47.815Z,3.05
2022-10-02T02:54:25.658Z,2.92
2022-10-02T02:56:57.598Z,3.47
2022-10-02T02:59:32.475Z,3.83
2022-10-02T03:02:02.658Z,2.75
2022-10-02T03:04:32.051Z,5.53
2022-10-02T03:07:04.929Z,3.20
2022-10-02T03:09:35.987Z,3.75
2022-10-02T03:12:34.192Z,2.70
2022-10-02T03:15:25.732Z,2.72
2022-10-02T03:18:22.832Z,3.08
2022-10-02T03:21:09.347Z,3.13
2022-10-02T03:23:47.533Z,3.07
2022-10-02T03:26:39.130Z,2.00
2022-10-02T03:29:27.427Z,4.07
2022-10-02T03:31:58.966Z,2.00
2022-10-02T03:34:29.080Z,3.13
2022-10-02T03:36:58.542Z,2.88
2022-10-02T03:39:27.618Z,3.38
2022-10-02T03:41:56.863Z,3.65
2022-10-02T03:44:26.091Z,3.00
2022-10-02T03:46:55.793Z,3.63
2022-10-02T03:49:26.135Z,2.95
2022-10-02T03:51:54.959Z,4.03
2022-10-02T03:54:25.705Z,3.05
2022-10-02T03:56:58.885Z,3.22
2022-10-02T03:59:45.578Z,3.70
2022-10-02T04:02:44.503Z,4.00
2022-10-02T04:05:45.650Z,2.75
2022-10-02T04:08:17.307Z,4.40
2022-10-02T04:11:17.848Z,4.72
2022-10-02T04:13:56.874Z,3.72
2022-10-02T04:16:39.885Z,3.47
2022-10-02T04:19:30.751Z,4.07
2022-10-02T04:22:08.608Z,3.72
2022-10-02T04:24:43.866Z,3.00
2022-10-02T04:27:33.727Z,5.70
2022-10-02T04:30:14.237Z,4.20
2022-10-02T04:32:43.472Z,4.18
2022-10-02T04:35:16.279Z,4.97
2022-10-02T04:37:55.125Z,3.20
2022-10-02T04:40:51.678Z,3.67
2022-10-02T04:43:57.728Z,6.00
2022-10-02T04:46:36.602Z,3.17
2022-10-02T04:49:11.996Z,3.70
2022-10-02T04:51:41.134Z,5.20
2022-10-02T04:54:26.978Z,3.85
2022-10-02T04:57:11.115Z,3.25
2022-10-02T05:00:10.881Z,4.38
2022-10-02T05:03:02.991Z,5.30
2022-10-02T05:05:53.951Z,5.13
2022-10-02T05:08:56.565Z,4.87
2022-10-02T05:11:36.632Z,4.88
2022-10-02T05:14:17.924Z,4.70
2022-10-02T05:17:23.335Z,7.20
2022-10-02T05:20:11.134Z,4.07
2022-10-02T05:23:18.311Z,5.28
2022-10-02T05:26:27.566Z,4.85
2022-10-02T05:29:15.256Z,3.40
2022-10-02T05:32:07.135Z,5.50
2022-10-02T05:34:57.493Z,5.67
2022-10-02T05:37:34.254Z,3.70
2022-10-02T05:40:03.480Z,6.40
2022-10-02T05:42:45.478Z,4.53
2022-10-02T05:45:27.455Z,4.45
2022-10-02T05:48:06.014Z,5.85
2022-10-02T05:50:40.015Z,5.68
2022-10-02T05:53:21.575Z,5.15
2022-10-02T05:56:00.343Z,7.20
2022-10-02T05:58:37.989Z,8.65
2022-10-02T06:01:28.994Z,5.55
2022-10-02T06:04:21.563Z,5.28
2022-10-02T06:06:56.645Z,6.23
2022-10-02T06:09:33.745Z,3.92
2022-10-02T06:12:11.923Z,7.05
2022-10-02T06:15:00.279Z,5.45
2022-10-02T06:17:35.388Z,5.00
2022-10-02T06:20:25.286Z,8.18
2022-10-02T06:23:08.805Z,5.57
2022-10-02T06:25:50.144Z,6.55
2022-10-02T06:28:26.223Z,5.15
2022-10-02T06:31:11.979Z,5.78
2022-10-02T06:33:42.413Z,3.92
2022-10-02T06:36:36.855Z,6.03
2022-10-02T06:39:22.245Z,7.22
2022-10-02T06:42:16.626Z,6.28
2022-10-02T06:45:14.385Z,5.43
2022-10-02T06:48:11.667Z,5.43
2022-10-02T06:51:17.412Z,6.68
2022-10-02T06:53:50.505Z,7.53
2022-10-02T06:57:00.776Z,6.50
2022-10-02T06:59:48.121Z,6.28
2022-10-02T07:02:41.286Z,5.60
2022-10-02T07:05:43.273Z,5.85
2022-10-02T07:08:32.844Z,6.95
2022-10-02T07:11:07.605Z,10.18
2022-10-02T07:13:49.541Z,8.23
2022-10-02T07:16:51.314Z,6.88
2022-10-02T07:19:37.987Z,5.95
2022-10-02T07:22:44.115Z,5.88
2022-10-02T07:26:00.923Z,5.43
2022-10-02T07:28:30.620Z,5.78
2022-10-02T07:31:07.065Z,6.95
2022-10-02T07:33:58.196Z,7.03
2022-10-02T07:36:39.461Z,6.82
2022-10-02T07:39:21.893Z,6.93
2022-10-02T07:42:33.247Z,8.55
2022-10-02T07:45:09.414Z,8.43
2022-10-02T07:48:10.479Z,5.78
2022-10-02T07:50:43.017Z,8.88
2022-10-02T07:53:39.925Z,9.38
2022-10-02T07:56:21.306Z,7.40
2022-10-02T07:58:58.423Z,8.52
2022-10-02T08:01:37.528Z,9.23
2022-10-02T08:04:18.250Z,8.00
2022-10-02T08:06:50.059Z,11.65
2022-10-02T08:09:35.653Z,7.80
2022-10-02T08:12:31.085Z,10.57
2022-10-02T08:15:01.646Z,10.07
2022-10-02T08:17:45.446Z,11.27
2022-10-02T08:20:27.411Z,10.57
2022-10-02T08:23:07.862Z,7.28
2022-10-02T08:26:05.973Z,6.80
2022-10-02T08:28:59.525Z,10.85
2022-10-02T08:31:29.940Z,8.70
2022-10-02T08:34:00.660Z,9.88
2022-10-02T08:36:37.741Z,11.20
2022-10-02T08:39:25.175Z,9.07
2022-10-02T08:42:10.186Z,10.07
2022-10-02T08:45:10.123Z,8.55
2022-10-02T08:48:24.595Z,9.88
2022-10-02T08:51:18.945Z,9.17
2022-10-02T08:54:03.006Z,7.93
2022-10-02T08:56:42.625Z,7.95
2022-10-02T08:59:51.742Z,10.73
2022-10-02T09:03:02.645Z,10.13
2022-10-02T09:06:02.247Z,9.15
2022-10-02T09:08:50.166Z,8.13
2022-10-02T09:11:38.098Z,11.63
2022-10-02T09:14:44.758Z,9.48
2022-10-02T09:17:33.263Z,6.20
2022-10-02T09:20:41.579Z,9.30
2022-10-02T09:23:38.832Z,9.60
2022-10-02T09:26:53.251Z,7.37
2022-10-02T09:29:51.081Z,8.13
2022-10-02T09:32:27.471Z,11.07
2022-10-02T09:35:21.545Z,7.88
2022-10-02T09:38:22.208Z,6.85
2022-10-02T09:41:22.023Z,6.53
2022-10-02T09:44:09.916Z,6.95
2022-10-02T09:47:13.405Z,8.80
2022-10-02T09:50:05.401Z,6.22
2022-10-02T09:53:15.813Z,5.97
2022-10-02T09:56:22.118Z,8.85
2022-10-02T09:59:09.126Z,7.13
2022-10-02T10:02:15.810Z,6.85
2022-10-02T10:05:11.370Z,7.00
2022-10-02T10:08:18.207Z,6.70
2022-10-02T10:10:54.298Z,7.20
2022-10-02T10:13:53.619Z,7.07
2022-10-02T10:17:05.234Z,6.60
2022-10-02T10:19:53.319Z,8.43
2022-10-02T10:22:59.265Z,6.63
2022-10-02T10:25:56.199Z,6.90
2022-10-02T10:28:56.602Z,6.20
2022-10-02T10:32:06.029Z,6.97
2022-10-02T10:35:20.924Z,6.05
2022-10-02T10:38:16.805Z,6.32
2022-10-02T10:41:15.963Z,7.88
2022-10-02T10:44:23.301Z,9.07
2022-10-02T10:47:00.885Z,8.23
2022-10-02T10:49:56.161Z,6.82
2022-10-02T10:52:47.595Z,6.50
2022-10-02T10:55:47.143Z,7.57
2022-10-02T10:58:32.681Z,7.07
2022-10-02T11:01:46.273Z,7.65
2022-10-02T11:04:16.604Z,8.13
2022-10-02T11:07:43.718Z,8.45
2022-10-02T11:10:18.906Z,10.38
2022-10-02T11:13:14.497Z,9.43
2022-10-02T11:16:03.451Z,10.57
2022-10-02T11:18:36.805Z,9.10
2022-10-02T11:21:23.185Z,10.05
2022-10-02T11:23:57.904Z,10.55
2022-10-02T11:27:01.425Z,11.98
2022-10-02T11:29:50.611Z,8.85
2022-10-02T11:32:40.487Z,9.30
2022-10-02T11:35:24.377Z,7.85
2022-10-02T11:38:04.132Z,9.15
2022-10-02T11:41:08.762Z,9.13
2022-10-02T11:43:52.411Z,10.63
2022-10-02T11:46:30.410Z,9.85
2022-10-02T11:49:00.063Z,9.95
2022-10-02T11:51:47.351Z,8.30
2022-10-02T11:54:36.590Z,8.27
2022-10-02T11:57:22.394Z,9.13
2022-10-02T12:00:15.694Z,11.27
2022-10-02T12:03:11.767Z,9.63
2022-10-02T12:06:01.927Z,8.88
2022-10-02T12:08:51.845Z,12.40
2022-10-02T12:11:35.527Z,11.75
2022-10-02T12:14:33.649Z,7.75
2022-10-02T12:17:40.215Z,11.98
2022-10-02T12:20:34.221Z,12.70
2022-10-02T12:23:40.900Z,10.38
2022-10-02T12:26:53.100Z,11.20
2022-10-02T12:29:49.770Z,11.15
2022-10-02T12:32:37.360Z,10.77
2022-10-02T12:35:38.630Z,11.50
2022-10-02T12:38:28.165Z,12.52
2022-10-02T12:41:34.964Z,16.55
2022-10-02T12:44:33.320Z,13.13
2022-10-02T12:47:50.484Z,17.48
2022-10-02T12:50:42.448Z,13.33
2022-10-02T12:53:30.115Z,11.90
2022-10-02T12:56:46.902Z,14.45
2022-10-02T12:59:19.686Z,13.23
2022-10-02T13:02:16.305Z,11.88
2022-10-02T13:05:22.844Z,14.98
2022-10-02T13:08:17.033Z,15.98
2022-10-02T13:11:19.344Z,14.38
2022-10-02T13:14:27.440Z,12.73
2022-10-02T13:17:15.218Z,15.60
2022-10-02T13:20:14.023Z,15.07
2022-10-02T13:23:03.786Z,12.82
2022-10-02T13:26:02.455Z,13.27
2022-10-02T13:29:05.050Z,13.73
2022-10-02T13:31:52.067Z,9.85
2022-10-02T13:34:35.197Z,12.97
2022-10-02T13:37:48.227Z,10.30
2022-10-02T13:40:46.405Z,8.88
2022-10-02T13:43:35.656Z,9.05
2022-10-02T13:46:31.924Z,9.45
2022-10-02T13:49:19.565Z,10.20
2022-10-02T13:51:48.486Z,9.93
2022-10-02T13:55:13.449Z,11.80
2022-10-02T13:58:38.405Z,10.20
2022-10-02T14:01:45.085Z,9.23
2022-10-02T14:04:56.263Z,8.52
2022-10-02T14:07:48.085Z,11.35
2022-10-02T14:10:46.347Z,9.27
2022-10-02T14:13:39.289Z,7.53
2022-10-02T14:20:04.783Z,10.60
2022-10-02T14:22:55.352Z,7.85
2022-10-02T14:25:42.047Z,8.07
2022-10-02T14:28:27.418Z,8.35
2022-10-02T14:31:18.951Z,10.23
2022-10-02T14:34:11.205Z,9.80
2022-10-02T14:36:53.756Z,10.05
2022-10-02T14:40:02.389Z,8.80
2022-10-02T14:42:54.900Z,8.55
2022-10-02T14:46:01.221Z,10.10
2022-10-02T14:48:58.068Z,10.13
2022-10-02T14:52:15.925Z,10.07
2022-10-02T14:55:04.884Z,10.68
2022-10-02T14:57:45.695Z,9.93
2022-10-02T15:00:21.149Z,8.75
2022-10-02T15:03:29.346Z,8.48
2022-10-02T15:06:49.524Z,8.73
2022-10-02T15:09:29.585Z,9.63
2022-10-02T15:12:07.337Z,8.60
2022-10-02T15:15:04.946Z,9.30
2022-10-02T15:18:00.984Z,8.55
2022-10-02T15:21:01.108Z,12.40
2022-10-02T15:23:45.796Z,10.75
2022-10-02T15:26:39.721Z,9.20
2022-10-02T15:29:31.788Z,10.27
2022-10-02T15:32:29.376Z,8.73
2022-10-02T15:35:30.436Z,8.68
2022-10-02T15:38:18.300Z,11.63
2022-10-02T15:41:05.938Z,7.53
2022-10-02T15:43:47.176Z,12.17
2022-10-02T15:46:51.018Z,9.98
2022-10-02T15:49:55.157Z,9.40
2022-10-02T15:52:42.464Z,10.38
2022-10-02T15:55:22.508Z,11.52
2022-10-02T15:58:06.653Z,8.40
2022-10-02T16:01:02.705Z,8.75
2022-10-02T16:04:05.688Z,9.45
2022-10-02T16:06:58.094Z,8.50
2022-10-02T16:10:07.379Z,10.90
2022-10-02T16:12:52.753Z,9.57
2022-10-02T16:15:44.316Z,7.90
2022-10-02T16:18:54.579Z,10.13
2022-10-02T16:21:50.377Z,10.13
2022-10-02T16:24:19.177Z,9.93
2022-10-02T16:27:35.445Z,8.45
2022-10-02T16:30:09.123Z,8.35
2022-10-02T16:32:44.794Z,7.18
2022-10-02T16:35:43.536Z,8.87
2022-10-02T16:38:38.813Z,10.25
2022-10-02T16:41:39.453Z,9.55
2022-10-02T16:44:20.836Z,9.23
2022-10-02T16:46:55.322Z,12.77
2022-10-02T16:49:33.626Z,10.70
2022-10-02T16:52:06.483Z,9.20
2022-10-02T16:54:50.611Z,9.73
2022-10-02T16:57:40.956Z,11.68
2022-10-02T17:00:27.783Z,9.88
2022-10-02T17:03:03.003Z,9.82
2022-10-02T17:05:46.676Z,9.50
2022-10-02T17:08:32.074Z,12.00
2022-10-02T17:11:10.529Z,8.43
2022-10-02T17:14:13.100Z,10.25
2022-10-02T17:16:54.131Z,10.82
2022-10-02T17:19:46.692Z,9.05
2022-10-02T17:22:27.210Z,9.35
2022-10-02T17:25:18.437Z,10.60
2022-10-02T17:28:12.384Z,9.48
2022-10-02T17:31:13.463Z,8.77
2022-10-02T17:33:51.882Z,10.10
2022-10-02T17:36:49.058Z,9.57
2022-10-02T17:39:47.835Z,8.93
2022-10-02T17:42:44.558Z,9.40
2022-10-02T17:45:16.350Z,8.32
2022-10-02T17:47:54.133Z,10.25
2022-10-02T17:51:01.604Z,10.65
2022-10-02T17:54:23.751Z,9.47
2022-10-02T17:57:33.527Z,11.25
2022-10-02T18:00:24.743Z,9.95
2022-10-02T18:02:59.858Z,10.55
2022-10-02T18:05:46.142Z,8.85
2022-10-02T18:08:30.722Z,10.98
2022-10-02T18:11:32.674Z,11.05
2022-10-02T18:14:29.334Z,10.45
2022-10-02T18:17:23.424Z,8.20
2022-10-02T18:20:13.646Z,11.30
2022-10-02T18:22:56.610Z,10.10
2022-10-02T18:25:51.917Z,10.52
2022-10-02T18:29:10.823Z,8.65
2022-10-02T18:32:03.919Z,10.18
2022-10-02T18:35:14.981Z,10.70
2022-10-02T18:37:58.200Z,9.60
2022-10-02T18:40:35.922Z,10.65
2022-10-02T18:43:30.205Z,9.85
2022-10-02T18:46:14.299Z,9.02
2022-10-02T18:48:49.412Z,10.38
2022-10-02T18:51:18.215Z,8.52
2022-10-02T18:54:25.833Z,11.27
2022-10-02T18:57:29.324Z,10.77
2022-10-02T19:00:19.871Z,7.73
2022-10-02T19:03:13.142Z,12.80
2022-10-02T19:05:58.612Z,9.10
2022-10-02T19:09:08.370Z,10.15
2022-10-02T19:11:47.905Z,10.43
2022-10-02T19:14:29.206Z,8.48
2022-10-02T19:17:00.859Z,11.45
2022-10-02T19:19:31.281Z,10.93
2022-10-02T19:22:10.498Z,10.45
2022-10-02T19:24:42.187Z,7.85
2022-10-02T19:27:21.001Z,9.57
2022-10-02T19:29:58.054Z,12.77
2022-10-02T19:32:35.210Z,8.55
2022-10-02T19:35:33.759Z,10.20
2022-10-02T19:38:30.569Z,11.43
2022-10-02T19:41:03.119Z,10.20
2022-10-02T19:43:36.768Z,6.88
2022-10-02T19:46:10.557Z,8.98
2022-10-02T19:48:40.600Z,9.82
2022-10-02T19:51:19.141Z,7.20
2022-10-02T19:53:59.422Z,5.65
2022-10-02T19:56:43.074Z,10.87
2022-10-02T19:59:17.871Z,7.43
2022-10-02T20:01:54.966Z,5.32
2022-10-02T20:04:29.946Z,8.50
2022-10-02T20:07:00.817Z,8.10
2022-10-02T20:10:01.625Z,7.15
2022-10-02T20:12:40.424Z,7.20
2022-10-02T20:16:05.263Z,7.18
2022-10-02T20:18:35.250Z,7.05
2022-10-02T20:21:12.964Z,7.28
2022-10-02T20:23:45.229Z,5.90
2022-10-02T20:26:19.539Z,7.75
2022-10-02T20:28:54.521Z,7.55
2022-10-02T20:31:45.598Z,7.55
2022-10-02T20:34:32.449Z,12.38
2022-10-02T20:37:09.070Z,7.88
2022-10-02T20:40:19.378Z,9.68
2022-10-02T20:43:11.402Z,8.93
2022-10-02T20:46:03.568Z,9.05
2022-10-02T20:49:07.631Z,10.00
2022-10-02T20:52:01.633Z,12.02
2022-10-02T20:54:47.708Z,9.43
2022-10-02T20:57:29.871Z,10.73
2022-10-02T21:00:22.947Z,8.05
2022-10-02T21:03:29.156Z,8.30
2022-10-02T21:06:27.277Z,9.63
2022-10-02T21:09:10.878Z,7.68
2022-10-02T21:11:40.430Z,7.78
2022-10-02T21:14:22.728Z,12.00
2022-10-02T21:17:19.439Z,10.98
2022-10-02T21:20:16.643Z,8.95
2022-10-02T21:23:30.238Z,8.77
2022-10-02T21:26:48.459Z,8.63
2022-10-02T21:29:29.607Z,11.32
2022-10-02T21:32:29.724Z,9.90
2022-10-02T21:35:21.683Z,11.02
2022-10-02T21:37:56.075Z,9.68
2022-10-02T21:40:43.437Z,9.20
2022-10-02T21:43:34.003Z,6.93
2022-10-02T21:46:24.181Z,8.10
2022-10-02T21:49:37.938Z,9.02
2022-10-02T21:52:28.641Z,9.07
2022-10-02T21:55:20.226Z,9.45
2022-10-02T21:58:41.195Z,8.30
2022-10-02T22:02:07.327Z,9.85
2022-10-02T22:05:26.713Z,10.27
2022-10-02T22:08:11.846Z,10.90
2022-10-02T22:10:57.236Z,11.02
2022-10-02T22:13:32.407Z,9.63
2022-10-02T22:16:13.529Z,8.98
2022-10-02T22:19:00.423Z,10.35
2022-10-02T22:21:53.254Z,9.05
2022-10-02T22:24:28.022Z,8.70
2022-10-02T22:27:34.510Z,9.32
2022-10-02T22:30:04.550Z,8.05
2022-10-02T22:33:13.120Z,10.07
2022-10-02T22:35:50.565Z,8.73
2022-10-02T22:38:40.450Z,10.60
2022-10-02T22:41:27.873Z,6.35
2022-10-02T22:44:02.538Z,8.25
2022-10-02T22:47:10.312Z,9.30
2022-10-02T22:49:48.184Z,9.70
2022-10-02T22:52:29.030Z,8.70
2022-10-02T22:55:02.790Z,8.52
2022-10-02T22:57:44.059Z,8.43
2022-10-02T23:00:17.533Z,7.25
2022-10-02T23:03:20.354Z,8.20
2022-10-02T23:05:58.673Z,9.25
2022-10-02T23:08:30.889Z,8.70
2022-10-02T23:11:15.739Z,10.38
2022-10-02T23:13:57.881Z,10.98
2022-10-02T23:16:43.763Z,10.37
2022-10-02T23:19:21.081Z,8.00
2022-10-02T23:22:08.435Z,8.50
2022-10-02T23:25:03.262Z,8.63
2022-10-02T23:27:46.464Z,6.80
2022-10-02T23:30:23.086Z,8.48
2022-10-02T23:32:57.355Z,6.80
2022-10-02T23:35:51.030Z,8.85
2022-10-02T23:38:26.661Z,8.02
2022-10-02T23:41:35.403Z,9.38
2022-10-02T23:44:22.003Z,7.37
2022-10-02T23:46:51.091Z,7.43
2022-10-02T23:49:23.235Z,8.88
2022-10-02T23:52:34.167Z,7.25
2022-10-02T23:55:47.187Z,7.22
2022-10-02T23:58:37.068Z,7.45
